sensor_id;sensor_type;location;lat;lon;timestamp;temperature;humidity
30678;DHT22;17437;47.188;8.896;2023-02-25T00:00:47;8.00;99.90
30678;DHT22;17437;47.188;8.896;2023-02-25T00:03:18;7.90;99.90
30678;DHT22;17437;47.188;8.896;2023-02-25T00:05:50;7.90;99.90
30678;DHT22;17437;47.188;8.896;2023-02-25T00:08:21;7.90;99.90
30678;DHT22;17437;47.188;8.896;2023-02-25T00:10:58;7.90;99.90
30678;DHT22;17437;47.188;8.896;2023-02-25T00:13:31;8.00;99.90
30678;DHT22;17437;47.188;8.896;2023-02-25T00:18:40;8.10;99.90
30678;DHT22;17437;47.188;8.896;2023-02-25T00:21:16;8.10;99.90
30678;DHT22;17437;47.188;8.896;2023-02-25T00:23:48;8.10;99.90
30678;DHT22;17437;47.188;8.896;2023-02-25T00:26:21;8.00;99.90
30678;DHT22;17437;47.188;8.896;2023-02-25T00:28:53;7.90;99.90
30678;DHT22;17437;47.188;8.896;2023-02-25T00:31:25;8.00;99.90
30678;DHT22;17437;47.188;8.896;2023-02-25T00:33:57;7.90;99.90
30678;DHT22;17437;47.188;8.896;2023-02-25T00:36:28;8.00;99.90
30678;DHT22;17437;47.188;8.896;2023-02-25T00:39:00;8.00;99.90
30678;DHT22;17437;47.188;8.896;2023-02-25T00:41:32;8.10;99.90
30678;DHT22;17437;47.188;8.896;2023-02-25T00:44:04;8.10;99.90
30678;DHT22;17437;47.188;8.896;2023-02-25T00:46:37;8.20;99.90
30678;DHT22;17437;47.188;8.896;2023-02-25T00:49:08;8.20;99.90
30678;DHT22;17437;47.188;8.896;2023-02-25T00:51:41;8.20;99.90
30678;DHT22;17437;47.188;8.896;2023-02-25T00:54:13;8.10;99.90
30678;DHT22;17437;47.188;8.896;2023-02-25T00:56:44;8.10;99.90
30678;DHT22;17437;47.188;8.896;2023-02-25T00:59:16;8.00;99.90
30678;DHT22;17437;47.188;8.896;2023-02-25T01:01:47;8.00;99.90
30678;DHT22;17437;47.188;8.896;2023-02-25T01:04:19;8.00;99.90
30678;DHT22;17437;47.188;8.896;2023-02-25T01:06:51;7.90;99.90
30678;DHT22;17437;47.188;8.896;2023-02-25T01:09:25;7.90;99.90
30678;DHT22;17437;47.188;8.896;2023-02-25T01:11:56;7.90;99.90
30678;DHT22;17437;47.188;8.896;2023-02-25T01:14:28;7.90;99.90
30678;DHT22;17437;47.188;8.896;2023-02-25T01:16:59;7.90;99.90
30678;DHT22;17437;47.188;8.896;2023-02-25T01:19:32;7.90;99.90
30678;DHT22;17437;47.188;8.896;2023-02-25T01:22:02;7.90;99.90
30678;DHT22;17437;47.188;8.896;2023-02-25T01:24:34;7.90;99.90
30678;DHT22;17437;47.188;8.896;2023-02-25T01:27:06;7.90;99.90
30678;DHT22;17437;47.188;8.896;2023-02-25T01:29:39;7.90;99.90
30678;DHT22;17437;47.188;8.896;2023-02-25T01:32:13;7.90;99.90
30678;DHT22;17437;47.188;8.896;2023-02-25T01:34:45;7.80;99.90
30678;DHT22;17437;47.188;8.896;2023-02-25T01:37:16;7.80;99.90
30678;DHT22;17437;47.188;8.896;2023-02-25T01:39:48;7.80;99.90
30678;DHT22;17437;47.188;8.896;2023-02-25T01:42:19;7.90;99.90
30678;DHT22;17437;47.188;8.896;2023-02-25T01:45:28;7.80;99.90
30678;DHT22;17437;47.188;8.896;2023-02-25T01:48:07;7.80;99.90
30678;DHT22;17437;47.188;8.896;2023-02-25T01:50:46;7.90;99.90
30678;DHT22;17437;47.188;8.896;2023-02-25T01:56:00;7.80;99.90
30678;DHT22;17437;47.188;8.896;2023-02-25T01:58:33;7.80;99.90
30678;DHT22;17437;47.188;8.896;2023-02-25T02:01:06;7.90;99.90
30678;DHT22;17437;47.188;8.896;2023-02-25T02:03:41;8.00;99.90
30678;DHT22;17437;47.188;8.896;2023-02-25T02:06:15;8.00;99.90
30678;DHT22;17437;47.188;8.896;2023-02-25T02:08:48;7.90;99.90
30678;DHT22;17437;47.188;8.896;2023-02-25T02:11:20;7.90;99.90
30678;DHT22;17437;47.188;8.896;2023-02-25T02:13:54;7.80;99.90
30678;DHT22;17437;47.188;8.896;2023-02-25T02:16:37;7.80;99.90
30678;DHT22;17437;47.188;8.896;2023-02-25T02:19:17;7.70;99.90
30678;DHT22;17437;47.188;8.896;2023-02-25T02:21:54;7.80;99.90
30678;DHT22;17437;47.188;8.896;2023-02-25T02:34:04;7.60;99.90
30678;DHT22;17437;47.188;8.896;2023-02-25T02:36:39;7.40;99.90
30678;DHT22;17437;47.188;8.896;2023-02-25T02:39:14;7.20;99.90
30678;DHT22;17437;47.188;8.896;2023-02-25T02:41:52;7.20;99.90
30678;DHT22;17437;47.188;8.896;2023-02-25T02:44:25;7.10;99.90
30678;DHT22;17437;47.188;8.896;2023-02-25T02:46:59;7.10;99.90
30678;DHT22;17437;47.188;8.896;2023-02-25T02:49:35;7.00;99.90
30678;DHT22;17437;47.188;8.896;2023-02-25T02:52:12;6.90;99.90
30678;DHT22;17437;47.188;8.896;2023-02-25T02:54:48;6.90;99.90
30678;DHT22;17437;47.188;8.896;2023-02-25T02:57:21;6.80;99.90
30678;DHT22;17437;47.188;8.896;2023-02-25T03:00:00;6.80;99.90
30678;DHT22;17437;47.188;8.896;2023-02-25T03:02:41;6.80;99.90
30678;DHT22;17437;47.188;8.896;2023-02-25T03:05:18;6.80;99.90
30678;DHT22;17437;47.188;8.896;2023-02-25T03:07:57;6.80;99.90
30678;DHT22;17437;47.188;8.896;2023-02-25T03:10:31;6.70;99.90
30678;DHT22;17437;47.188;8.896;2023-02-25T03:13:03;6.70;99.90
30678;DHT22;17437;47.188;8.896;2023-02-25T03:15:35;6.70;99.90
30678;DHT22;17437;47.188;8.896;2023-02-25T03:18:10;6.70;99.90
30678;DHT22;17437;47.188;8.896;2023-02-25T03:20:44;6.60;99.90
30678;DHT22;17437;47.188;8.896;2023-02-25T03:23:19;6.60;99.90
30678;DHT22;17437;47.188;8.896;2023-02-25T03:25:54;6.60;99.90
30678;DHT22;17437;47.188;8.896;2023-02-25T03:28:29;6.50;99.90
30678;DHT22;17437;47.188;8.896;2023-02-25T03:31:03;6.50;99.90
30678;DHT22;17437;47.188;8.896;2023-02-25T03:33:39;6.40;99.90
30678;DHT22;17437;47.188;8.896;2023-02-25T03:36:16;6.30;99.90
30678;DHT22;17437;47.188;8.896;2023-02-25T03:38:51;6.20;99.90
30678;DHT22;17437;47.188;8.896;2023-02-25T03:41:26;6.20;99.90
30678;DHT22;17437;47.188;8.896;2023-02-25T03:43:58;6.10;99.90
30678;DHT22;17437;47.188;8.896;2023-02-25T03:46:30;6.10;99.90
30678;DHT22;17437;47.188;8.896;2023-02-25T03:49:04;6.00;99.90
30678;DHT22;17437;47.188;8.896;2023-02-25T03:51:39;5.90;99.90
30678;DHT22;17437;47.188;8.896;2023-02-25T03:54:11;5.90;99.90
30678;DHT22;17437;47.188;8.896;2023-02-25T03:56:47;5.80;99.90
30678;DHT22;17437;47.188;8.896;2023-02-25T03:59:19;5.80;99.90
30678;DHT22;17437;47.188;8.896;2023-02-25T04:01:53;5.80;99.90
30678;DHT22;17437;47.188;8.896;2023-02-25T04:04:25;5.80;99.90
30678;DHT22;17437;47.188;8.896;2023-02-25T04:06:57;5.70;99.90
30678;DHT22;17437;47.188;8.896;2023-02-25T04:09:28;5.70;99.90
30678;DHT22;17437;47.188;8.896;2023-02-25T04:12:00;5.60;99.90
30678;DHT22;17437;47.188;8.896;2023-02-25T04:14:31;5.60;99.90
30678;DHT22;17437;47.188;8.896;2023-02-25T04:17:02;5.60;99.90
30678;DHT22;17437;47.188;8.896;2023-02-25T04:19:35;5.50;99.90
30678;DHT22;17437;47.188;8.896;2023-02-25T04:22:06;5.50;99.90
30678;DHT22;17437;47.188;8.896;2023-02-25T04:24:38;5.50;99.90
30678;DHT22;17437;47.188;8.896;2023-02-25T04:27:10;5.40;99.90
30678;DHT22;17437;47.188;8.896;2023-02-25T04:29:43;5.40;99.90
30678;DHT22;17437;47.188;8.896;2023-02-25T04:32:15;5.30;99.90
30678;DHT22;17437;47.188;8.896;2023-02-25T04:34:47;5.30;99.90
30678;DHT22;17437;47.188;8.896;2023-02-25T04:37:18;5.20;99.90
30678;DHT22;17437;47.188;8.896;2023-02-25T04:39:50;5.20;99.90
30678;DHT22;17437;47.188;8.896;2023-02-25T04:42:22;5.20;99.90
30678;DHT22;17437;47.188;8.896;2023-02-25T04:44:53;5.20;99.90
30678;DHT22;17437;47.188;8.896;2023-02-25T04:47:25;5.20;99.90
30678;DHT22;17437;47.188;8.896;2023-02-25T04:49:56;5.10;99.90
30678;DHT22;17437;47.188;8.896;2023-02-25T04:52:28;5.10;99.90
30678;DHT22;17437;47.188;8.896;2023-02-25T04:54:59;5.00;99.90
30678;DHT22;17437;47.188;8.896;2023-02-25T04:57:31;4.90;99.90
30678;DHT22;17437;47.188;8.896;2023-02-25T05:00:03;4.80;99.90
30678;DHT22;17437;47.188;8.896;2023-02-25T05:02:39;4.80;99.90
30678;DHT22;17437;47.188;8.896;2023-02-25T05:05:10;4.80;99.90
30678;DHT22;17437;47.188;8.896;2023-02-25T05:10:21;4.90;99.90
30678;DHT22;17437;47.188;8.896;2023-02-25T05:12:53;4.90;99.90
30678;DHT22;17437;47.188;8.896;2023-02-25T05:15:24;4.90;99.90
30678;DHT22;17437;47.188;8.896;2023-02-25T05:17:56;4.90;99.90
30678;DHT22;17437;47.188;8.896;2023-02-25T05:20:27;4.90;99.90
30678;DHT22;17437;47.188;8.896;2023-02-25T05:22:59;4.90;99.90
30678;DHT22;17437;47.188;8.896;2023-02-25T05:25:31;4.90;99.90
30678;DHT22;17437;47.188;8.896;2023-02-25T05:28:03;4.90;99.90
30678;DHT22;17437;47.188;8.896;2023-02-25T05:30:37;4.90;99.90
30678;DHT22;17437;47.188;8.896;2023-02-25T05:33:09;4.90;99.90
30678;DHT22;17437;47.188;8.896;2023-02-25T05:35:43;4.90;99.90
30678;DHT22;17437;47.188;8.896;2023-02-25T05:38:14;4.80;99.90
30678;DHT22;17437;47.188;8.896;2023-02-25T05:40:46;4.80;99.90
30678;DHT22;17437;47.188;8.896;2023-02-25T05:43:17;4.80;99.90
30678;DHT22;17437;47.188;8.896;2023-02-25T05:45:53;4.80;99.90
30678;DHT22;17437;47.188;8.896;2023-02-25T05:48:25;4.80;99.90
30678;DHT22;17437;47.188;8.896;2023-02-25T05:51:01;4.80;99.90
30678;DHT22;17437;47.188;8.896;2023-02-25T05:53:33;4.80;99.90
30678;DHT22;17437;47.188;8.896;2023-02-25T05:56:07;4.80;99.90
30678;DHT22;17437;47.188;8.896;2023-02-25T05:58:39;4.80;99.90
30678;DHT22;17437;47.188;8.896;2023-02-25T06:01:15;4.80;99.90
30678;DHT22;17437;47.188;8.896;2023-02-25T06:03:49;4.70;99.90
30678;DHT22;17437;47.188;8.896;2023-02-25T06:06:21;4.70;99.90
30678;DHT22;17437;47.188;8.896;2023-02-25T06:08:54;4.60;99.90
30678;DHT22;17437;47.188;8.896;2023-02-25T06:11:26;4.60;99.90
30678;DHT22;17437;47.188;8.896;2023-02-25T06:13:59;4.60;99.90
30678;DHT22;17437;47.188;8.896;2023-02-25T06:16:31;4.60;99.90
30678;DHT22;17437;47.188;8.896;2023-02-25T06:19:02;4.50;99.90
30678;DHT22;17437;47.188;8.896;2023-02-25T06:21:35;4.50;99.90
30678;DHT22;17437;47.188;8.896;2023-02-25T06:24:09;4.50;99.90
30678;DHT22;17437;47.188;8.896;2023-02-25T06:26:40;4.50;99.90
30678;DHT22;17437;47.188;8.896;2023-02-25T06:29:14;4.50;99.90
30678;DHT22;17437;47.188;8.896;2023-02-25T06:31:45;4.50;99.90
30678;DHT22;17437;47.188;8.896;2023-02-25T06:34:17;4.50;99.90
30678;DHT22;17437;47.188;8.896;2023-02-25T06:36:48;4.50;99.90
30678;DHT22;17437;47.188;8.896;2023-02-25T06:39:20;4.40;99.90
30678;DHT22;17437;47.188;8.896;2023-02-25T06:41:51;4.40;99.90
30678;DHT22;17437;47.188;8.896;2023-02-25T06:47:03;4.40;99.90
30678;DHT22;17437;47.188;8.896;2023-02-25T06:49:34;4.40;99.90
30678;DHT22;17437;47.188;8.896;2023-02-25T06:52:06;4.30;99.90
30678;DHT22;17437;47.188;8.896;2023-02-25T06:54:37;4.30;99.90
30678;DHT22;17437;47.188;8.896;2023-02-25T06:57:09;4.20;99.90
30678;DHT22;17437;47.188;8.896;2023-02-25T06:59:40;4.20;99.90
30678;DHT22;17437;47.188;8.896;2023-02-25T07:02:12;4.10;99.90
30678;DHT22;17437;47.188;8.896;2023-02-25T07:04:44;4.10;99.90
30678;DHT22;17437;47.188;8.896;2023-02-25T07:07:16;4.10;99.90
30678;DHT22;17437;47.188;8.896;2023-02-25T07:09:48;4.10;99.90
30678;DHT22;17437;47.188;8.896;2023-02-25T07:12:19;4.10;99.90
30678;DHT22;17437;47.188;8.896;2023-02-25T07:14:51;4.20;99.90
30678;DHT22;17437;47.188;8.896;2023-02-25T07:17:22;4.20;99.90
30678;DHT22;17437;47.188;8.896;2023-02-25T07:19:53;4.20;99.90
30678;DHT22;17437;47.188;8.896;2023-02-25T07:22:26;4.20;99.90
30678;DHT22;17437;47.188;8.896;2023-02-25T07:24:57;4.20;99.90
30678;DHT22;17437;47.188;8.896;2023-02-25T07:27:29;4.20;99.90
30678;DHT22;17437;47.188;8.896;2023-02-25T07:30:01;4.20;99.90
30678;DHT22;17437;47.188;8.896;2023-02-25T07:32:32;4.20;99.90
30678;DHT22;17437;47.188;8.896;2023-02-25T07:35:06;4.20;99.90
30678;DHT22;17437;47.188;8.896;2023-02-25T07:37:38;4.20;99.90
30678;DHT22;17437;47.188;8.896;2023-02-25T07:40:12;4.30;99.90
30678;DHT22;17437;47.188;8.896;2023-02-25T07:42:45;4.30;99.90
30678;DHT22;17437;47.188;8.896;2023-02-25T07:45:17;4.30;99.90
30678;DHT22;17437;47.188;8.896;2023-02-25T07:47:52;4.30;99.90
30678;DHT22;17437;47.188;8.896;2023-02-25T07:50:23;4.30;99.90
30678;DHT22;17437;47.188;8.896;2023-02-25T07:52:54;4.30;99.90
30678;DHT22;17437;47.188;8.896;2023-02-25T07:55:26;4.30;99.90
30678;DHT22;17437;47.188;8.896;2023-02-25T07:57:58;4.30;99.90
30678;DHT22;17437;47.188;8.896;2023-02-25T08:00:29;4.40;99.90
30678;DHT22;17437;47.188;8.896;2023-02-25T08:03:01;4.40;99.90
30678;DHT22;17437;47.188;8.896;2023-02-25T08:05:34;4.40;99.90
30678;DHT22;17437;47.188;8.896;2023-02-25T08:08:06;4.50;99.90
30678;DHT22;17437;47.188;8.896;2023-02-25T08:10:40;4.50;99.90
30678;DHT22;17437;47.188;8.896;2023-02-25T08:13:13;4.60;99.90
30678;DHT22;17437;47.188;8.896;2023-02-25T08:15:45;4.60;99.90
30678;DHT22;17437;47.188;8.896;2023-02-25T08:18:16;4.60;99.90
30678;DHT22;17437;47.188;8.896;2023-02-25T08:20:48;4.60;99.90
30678;DHT22;17437;47.188;8.896;2023-02-25T08:23:19;4.60;99.90
30678;DHT22;17437;47.188;8.896;2023-02-25T08:25:53;4.60;99.90
30678;DHT22;17437;47.188;8.896;2023-02-25T08:28:26;4.60;99.90
30678;DHT22;17437;47.188;8.896;2023-02-25T08:31:05;4.70;99.90
30678;DHT22;17437;47.188;8.896;2023-02-25T08:33:37;4.70;99.90
30678;DHT22;17437;47.188;8.896;2023-02-25T08:36:11;4.80;99.90
30678;DHT22;17437;47.188;8.896;2023-02-25T08:38:43;4.80;99.90
30678;DHT22;17437;47.188;8.896;2023-02-25T08:41:14;4.80;99.90
30678;DHT22;17437;47.188;8.896;2023-02-25T08:43:48;4.80;99.90
30678;DHT22;17437;47.188;8.896;2023-02-25T08:46:21;4.70;99.90
30678;DHT22;17437;47.188;8.896;2023-02-25T08:48:53;4.70;99.90
30678;DHT22;17437;47.188;8.896;2023-02-25T08:51:27;4.70;99.90
30678;DHT22;17437;47.188;8.896;2023-02-25T08:54:02;4.70;99.90
30678;DHT22;17437;47.188;8.896;2023-02-25T08:56:35;4.80;99.90
30678;DHT22;17437;47.188;8.896;2023-02-25T08:59:06;4.80;99.90
30678;DHT22;17437;47.188;8.896;2023-02-25T09:01:38;4.80;99.90
30678;DHT22;17437;47.188;8.896;2023-02-25T09:04:20;4.80;99.90
30678;DHT22;17437;47.188;8.896;2023-02-25T09:06:52;4.90;99.90
30678;DHT22;17437;47.188;8.896;2023-02-25T09:09:24;4.80;99.90
30678;DHT22;17437;47.188;8.896;2023-02-25T09:11:56;4.90;99.90
30678;DHT22;17437;47.188;8.896;2023-02-25T09:14:28;4.90;99.90
30678;DHT22;17437;47.188;8.896;2023-02-25T09:16:59;4.90;99.90
30678;DHT22;17437;47.188;8.896;2023-02-25T09:19:32;5.00;99.90
30678;DHT22;17437;47.188;8.896;2023-02-25T09:22:04;5.00;99.90
30678;DHT22;17437;47.188;8.896;2023-02-25T09:24:36;5.00;99.90
30678;DHT22;17437;47.188;8.896;2023-02-25T09:27:07;5.00;99.90
30678;DHT22;17437;47.188;8.896;2023-02-25T09:29:40;4.90;99.90
30678;DHT22;17437;47.188;8.896;2023-02-25T09:32:30;4.90;99.90
30678;DHT22;17437;47.188;8.896;2023-02-25T09:35:02;4.90;99.90
30678;DHT22;17437;47.188;8.896;2023-02-25T09:37:36;5.00;99.90
30678;DHT22;17437;47.188;8.896;2023-02-25T09:45:37;5.00;99.90
30678;DHT22;17437;47.188;8.896;2023-02-25T09:50:53;5.10;99.90
30678;DHT22;17437;47.188;8.896;2023-02-25T09:53:29;5.10;99.90
30678;DHT22;17437;47.188;8.896;2023-02-25T09:56:04;5.20;99.90
30678;DHT22;17437;47.188;8.896;2023-02-25T10:01:22;5.10;99.90
30678;DHT22;17437;47.188;8.896;2023-02-25T10:03:57;5.20;99.90
30678;DHT22;17437;47.188;8.896;2023-02-25T10:06:31;5.10;99.90
30678;DHT22;17437;47.188;8.896;2023-02-25T10:09:08;5.10;99.90
30678;DHT22;17437;47.188;8.896;2023-02-25T10:11:48;5.10;99.90
30678;DHT22;17437;47.188;8.896;2023-02-25T10:14:27;5.20;99.90
30678;DHT22;17437;47.188;8.896;2023-02-25T10:17:01;5.20;99.90
30678;DHT22;17437;47.188;8.896;2023-02-25T10:19:41;5.20;99.90
30678;DHT22;17437;47.188;8.896;2023-02-25T10:22:25;5.20;99.90
30678;DHT22;17437;47.188;8.896;2023-02-25T10:24:58;5.10;99.90
30678;DHT22;17437;47.188;8.896;2023-02-25T10:27:33;5.20;99.90
30678;DHT22;17437;47.188;8.896;2023-02-25T10:30:11;5.30;99.90
30678;DHT22;17437;47.188;8.896;2023-02-25T10:32:48;5.30;99.90
30678;DHT22;17437;47.188;8.896;2023-02-25T10:35:24;5.40;99.90
30678;DHT22;17437;47.188;8.896;2023-02-25T10:38:14;5.50;99.90
30678;DHT22;17437;47.188;8.896;2023-02-25T10:41:06;5.50;99.90
30678;DHT22;17437;47.188;8.896;2023-02-25T10:43:38;5.60;99.90
30678;DHT22;17437;47.188;8.896;2023-02-25T10:48:55;5.70;99.90
30678;DHT22;17437;47.188;8.896;2023-02-25T10:51:27;5.70;99.90
30678;DHT22;17437;47.188;8.896;2023-02-25T10:54:04;5.80;99.90
30678;DHT22;17437;47.188;8.896;2023-02-25T10:56:40;5.80;99.90
30678;DHT22;17437;47.188;8.896;2023-02-25T10:59:26;5.70;99.90
30678;DHT22;17437;47.188;8.896;2023-02-25T11:02:00;5.70;99.90
30678;DHT22;17437;47.188;8.896;2023-02-25T11:04:35;5.80;99.90
30678;DHT22;17437;47.188;8.896;2023-02-25T11:07:27;5.90;99.90
30678;DHT22;17437;47.188;8.896;2023-02-25T11:10:13;6.00;99.90
30678;DHT22;17437;47.188;8.896;2023-02-25T11:12:46;6.00;99.90
30678;DHT22;17437;47.188;8.896;2023-02-25T11:15:30;6.10;99.90
30678;DHT22;17437;47.188;8.896;2023-02-25T11:18:18;6.20;99.90
30678;DHT22;17437;47.188;8.896;2023-02-25T11:20:53;6.10;99.90
30678;DHT22;17437;47.188;8.896;2023-02-25T11:23:29;6.10;99.90
30678;DHT22;17437;47.188;8.896;2023-02-25T11:26:00;6.20;99.90
30678;DHT22;17437;47.188;8.896;2023-02-25T11:28:37;6.20;99.90
30678;DHT22;17437;47.188;8.896;2023-02-25T11:31:10;6.10;99.90
30678;DHT22;17437;47.188;8.896;2023-02-25T11:33:48;6.10;99.90
30678;DHT22;17437;47.188;8.896;2023-02-25T11:36:21;6.10;99.90
30678;DHT22;17437;47.188;8.896;2023-02-25T11:39:06;6.20;99.90
30678;DHT22;17437;47.188;8.896;2023-02-25T11:41:38;6.10;99.90
30678;DHT22;17437;47.188;8.896;2023-02-25T11:44:25;6.10;99.90
30678;DHT22;17437;47.188;8.896;2023-02-25T11:49:50;6.00;99.90
30678;DHT22;17437;47.188;8.896;2023-02-25T11:52:24;6.00;99.90
30678;DHT22;17437;47.188;8.896;2023-02-25T11:55:03;6.00;99.90
30678;DHT22;17437;47.188;8.896;2023-02-25T11:58:03;5.90;99.90
30678;DHT22;17437;47.188;8.896;2023-02-25T12:00:39;5.90;99.90
30678;DHT22;17437;47.188;8.896;2023-02-25T12:03:40;5.90;99.90
30678;DHT22;17437;47.188;8.896;2023-02-25T12:06:26;5.90;99.90
30678;DHT22;17437;47.188;8.896;2023-02-25T12:09:14;5.90;99.90
30678;DHT22;17437;47.188;8.896;2023-02-25T12:12:08;5.90;99.90
30678;DHT22;17437;47.188;8.896;2023-02-25T12:15:15;5.90;99.90
30678;DHT22;17437;47.188;8.896;2023-02-25T12:18:38;5.90;99.90
30678;DHT22;17437;47.188;8.896;2023-02-25T12:24:27;5.80;99.90
30678;DHT22;17437;47.188;8.896;2023-02-25T12:27:08;5.80;99.90
30678;DHT22;17437;47.188;8.896;2023-02-25T12:30:06;5.70;99.90
30678;DHT22;17437;47.188;8.896;2023-02-25T12:32:51;5.70;99.90
30678;DHT22;17437;47.188;8.896;2023-02-25T12:35:37;5.70;99.90
30678;DHT22;17437;47.188;8.896;2023-02-25T12:38:46;5.70;99.90
30678;DHT22;17437;47.188;8.896;2023-02-25T12:41:22;5.60;99.90
30678;DHT22;17437;47.188;8.896;2023-02-25T12:43:59;5.60;99.90
30678;DHT22;17437;47.188;8.896;2023-02-25T12:46:43;5.50;99.90
30678;DHT22;17437;47.188;8.896;2023-02-25T12:49:34;5.50;99.90
30678;DHT22;17437;47.188;8.896;2023-02-25T12:58:29;5.30;99.90
30678;DHT22;17437;47.188;8.896;2023-02-25T13:01:11;5.20;99.90
30678;DHT22;17437;47.188;8.896;2023-02-25T13:04:09;5.20;99.90
30678;DHT22;17437;47.188;8.896;2023-02-25T13:10:15;5.10;99.90
30678;DHT22;17437;47.188;8.896;2023-02-25T13:12:55;5.20;99.90
30678;DHT22;17437;47.188;8.896;2023-02-25T13:18:21;5.30;99.90
30678;DHT22;17437;47.188;8.896;2023-02-25T13:21:03;5.20;99.90
30678;DHT22;17437;47.188;8.896;2023-02-25T13:30:16;5.40;99.90
30678;DHT22;17437;47.188;8.896;2023-02-25T13:32:53;5.40;99.90
30678;DHT22;17437;47.188;8.896;2023-02-25T13:35:31;5.50;99.90
30678;DHT22;17437;47.188;8.896;2023-02-25T13:38:12;5.50;99.90
30678;DHT22;17437;47.188;8.896;2023-02-25T13:40:53;5.50;99.90
30678;DHT22;17437;47.188;8.896;2023-02-25T13:43:42;5.60;99.90
30678;DHT22;17437;47.188;8.896;2023-02-25T13:46:38;5.60;99.90
30678;DHT22;17437;47.188;8.896;2023-02-25T13:52:31;5.70;99.90
30678;DHT22;17437;47.188;8.896;2023-02-25T13:58:25;5.80;99.90
30678;DHT22;17437;47.188;8.896;2023-02-25T14:01:19;5.90;99.90
30678;DHT22;17437;47.188;8.896;2023-02-25T14:04:04;5.80;99.90
30678;DHT22;17437;47.188;8.896;2023-02-25T14:06:44;5.80;99.90
30678;DHT22;17437;47.188;8.896;2023-02-25T14:09:23;5.90;99.90
30678;DHT22;17437;47.188;8.896;2023-02-25T14:11:59;5.80;99.90
30678;DHT22;17437;47.188;8.896;2023-02-25T14:14:46;5.80;99.90
30678;DHT22;17437;47.188;8.896;2023-02-25T14:20:33;5.80;99.90
30678;DHT22;17437;47.188;8.896;2023-02-25T14:23:07;5.80;99.90
30678;DHT22;17437;47.188;8.896;2023-02-25T14:25:52;5.70;99.90
30678;DHT22;17437;47.188;8.896;2023-02-25T14:28:28;5.60;99.90
30678;DHT22;17437;47.188;8.896;2023-02-25T14:31:05;5.50;99.90
30678;DHT22;17437;47.188;8.896;2023-02-25T14:33:50;5.40;99.90
30678;DHT22;17437;47.188;8.896;2023-02-25T14:36:40;5.40;99.90
30678;DHT22;17437;47.188;8.896;2023-02-25T14:39:24;5.30;99.90
30678;DHT22;17437;47.188;8.896;2023-02-25T14:42:22;5.30;99.90
30678;DHT22;17437;47.188;8.896;2023-02-25T14:44:57;5.20;99.90
30678;DHT22;17437;47.188;8.896;2023-02-25T14:47:31;5.20;99.90
30678;DHT22;17437;47.188;8.896;2023-02-25T14:50:09;5.10;99.90
30678;DHT22;17437;47.188;8.896;2023-02-25T14:52:55;5.10;99.90
30678;DHT22;17437;47.188;8.896;2023-02-25T14:59:07;5.00;99.90
30678;DHT22;17437;47.188;8.896;2023-02-25T15:01:51;5.00;99.90
30678;DHT22;17437;47.188;8.896;2023-02-25T15:08:04;4.90;99.90
30678;DHT22;17437;47.188;8.896;2023-02-25T15:10:42;4.80;99.90
30678;DHT22;17437;47.188;8.896;2023-02-25T15:13:34;4.70;99.90
30678;DHT22;17437;47.188;8.896;2023-02-25T15:19:33;4.60;99.90
30678;DHT22;17437;47.188;8.896;2023-02-25T15:22:21;4.40;99.90
30678;DHT22;17437;47.188;8.896;2023-02-25T15:24:54;4.40;99.90
30678;DHT22;17437;47.188;8.896;2023-02-25T15:27:55;4.30;99.90
30678;DHT22;17437;47.188;8.896;2023-02-25T15:33:31;4.20;99.90
30678;DHT22;17437;47.188;8.896;2023-02-25T15:36:00;4.20;99.90
30678;DHT22;17437;47.188;8.896;2023-02-25T15:38:45;4.10;99.90
30678;DHT22;17437;47.188;8.896;2023-02-25T15:41:45;4.10;99.90
30678;DHT22;17437;47.188;8.896;2023-02-25T15:44:35;4.10;99.90
30678;DHT22;17437;47.188;8.896;2023-02-25T15:50:21;4.10;99.90
30678;DHT22;17437;47.188;8.896;2023-02-25T15:52:59;4.10;99.90
30678;DHT22;17437;47.188;8.896;2023-02-25T15:55:35;4.20;99.90
30678;DHT22;17437;47.188;8.896;2023-02-25T16:01:35;4.20;99.90
30678;DHT22;17437;47.188;8.896;2023-02-25T16:06:58;4.20;99.90
30678;DHT22;17437;47.188;8.896;2023-02-25T16:09:32;4.20;99.90
30678;DHT22;17437;47.188;8.896;2023-02-25T16:12:06;4.30;99.90
30678;DHT22;17437;47.188;8.896;2023-02-25T16:14:39;4.20;99.90
30678;DHT22;17437;47.188;8.896;2023-02-25T16:17:17;4.30;99.90
30678;DHT22;17437;47.188;8.896;2023-02-25T16:19:53;4.30;99.90
30678;DHT22;17437;47.188;8.896;2023-02-25T16:22:26;4.30;99.90
30678;DHT22;17437;47.188;8.896;2023-02-25T16:24:59;4.30;99.90
30678;DHT22;17437;47.188;8.896;2023-02-25T16:27:43;4.20;99.90
30678;DHT22;17437;47.188;8.896;2023-02-25T16:30:18;4.20;99.90
30678;DHT22;17437;47.188;8.896;2023-02-25T16:32:57;4.20;99.90
30678;DHT22;17437;47.188;8.896;2023-02-25T16:35:30;4.10;99.90
30678;DHT22;17437;47.188;8.896;2023-02-25T16:38:06;4.20;99.90
30678;DHT22;17437;47.188;8.896;2023-02-25T16:40:39;4.20;99.90
30678;DHT22;17437;47.188;8.896;2023-02-25T16:43:15;4.20;99.90
30678;DHT22;17437;47.188;8.896;2023-02-25T16:45:54;4.20;99.90
30678;DHT22;17437;47.188;8.896;2023-02-25T16:48:29;4.20;99.90
30678;DHT22;17437;47.188;8.896;2023-02-25T16:51:07;4.20;99.90
30678;DHT22;17437;47.188;8.896;2023-02-25T16:53:42;4.20;99.90
30678;DHT22;17437;47.188;8.896;2023-02-25T16:56:15;4.20;99.90
30678;DHT22;17437;47.188;8.896;2023-02-25T16:59:01;4.20;99.90
30678;DHT22;17437;47.188;8.896;2023-02-25T17:01:34;4.10;99.90
30678;DHT22;17437;47.188;8.896;2023-02-25T17:04:14;4.10;99.90
30678;DHT22;17437;47.188;8.896;2023-02-25T17:07:04;4.00;99.90
30678;DHT22;17437;47.188;8.896;2023-02-25T17:09:49;4.00;99.90
30678;DHT22;17437;47.188;8.896;2023-02-25T17:12:26;4.00;99.90
30678;DHT22;17437;47.188;8.896;2023-02-25T17:14:59;3.90;99.90
30678;DHT22;17437;47.188;8.896;2023-02-25T17:17:33;3.90;99.90
30678;DHT22;17437;47.188;8.896;2023-02-25T17:20:12;3.90;99.90
30678;DHT22;17437;47.188;8.896;2023-02-25T17:22:44;3.90;99.90
30678;DHT22;17437;47.188;8.896;2023-02-25T17:25:16;3.90;99.90
30678;DHT22;17437;47.188;8.896;2023-02-25T17:27:49;3.80;99.90
30678;DHT22;17437;47.188;8.896;2023-02-25T17:30:36;3.80;99.90
30678;DHT22;17437;47.188;8.896;2023-02-25T17:36:00;3.70;99.90
30678;DHT22;17437;47.188;8.896;2023-02-25T17:38:33;3.60;99.90
30678;DHT22;17437;47.188;8.896;2023-02-25T17:41:06;3.60;99.90
30678;DHT22;17437;47.188;8.896;2023-02-25T17:43:39;3.60;99.90
30678;DHT22;17437;47.188;8.896;2023-02-25T17:46:22;3.60;99.90
30678;DHT22;17437;47.188;8.896;2023-02-25T17:48:57;3.60;99.90
30678;DHT22;17437;47.188;8.896;2023-02-25T17:51:31;3.60;99.90
30678;DHT22;17437;47.188;8.896;2023-02-25T17:54:06;3.60;99.90
30678;DHT22;17437;47.188;8.896;2023-02-25T17:56:38;3.60;99.90
30678;DHT22;17437;47.188;8.896;2023-02-25T17:59:36;3.60;99.90
30678;DHT22;17437;47.188;8.896;2023-02-25T18:02:30;3.70;99.90
30678;DHT22;17437;47.188;8.896;2023-02-25T18:05:23;3.70;99.90
30678;DHT22;17437;47.188;8.896;2023-02-25T18:10:47;3.70;99.90
30678;DHT22;17437;47.188;8.896;2023-02-25T18:13:23;3.70;99.90
30678;DHT22;17437;47.188;8.896;2023-02-25T18:19:23;3.70;99.90
30678;DHT22;17437;47.188;8.896;2023-02-25T18:21:51;3.70;99.90